createdAt,value
2018-11-06T00:00:31.825Z,7.06
2018-11-06T00:03:21.138Z,7.07
2018-11-06T00:05:53.589Z,7.09
2018-11-06T00:08:25.206Z,7.23
2018-11-06T00:10:56.779Z,7.33
2018-11-06T00:13:27.813Z,7.22
2018-11-06T00:15:59.364Z,7.37
2018-11-06T00:18:31.345Z,7.40
2018-11-06T00:21:02.354Z,7.40
2018-11-06T00:23:34.836Z,7.39
2018-11-06T00:26:06.003Z,7.36
2018-11-06T00:28:37.203Z,7.45
2018-11-06T00:31:08.275Z,7.60
2018-11-06T00:33:40.717Z,7.50
2018-11-06T00:36:12.652Z,7.53
2018-11-06T00:38:43.796Z,7.63
2018-11-06T00:41:15.271Z,7.71
2018-11-06T00:43:46.354Z,7.70
2018-11-06T00:46:17.849Z,7.80
2018-11-06T00:48:49.400Z,7.76
2018-11-06T00:51:20.393Z,7.84
2018-11-06T00:53:52.116Z,7.84
2018-11-06T00:56:24.530Z,7.85
2018-11-06T00:58:56.027Z,7.93
2018-11-06T01:01:27.169Z,8.01
2018-11-06T01:04:09.596Z,8.11
2018-11-06T01:06:42.974Z,8.17
2018-11-06T01:09:15.540Z,8.11
2018-11-06T01:11:47.096Z,8.11
2018-11-06T01:14:18.954Z,8.18
2018-11-06T01:16:51.181Z,8.21
2018-11-06T01:19:23.565Z,8.21
2018-11-06T01:21:54.882Z,8.31
2018-11-06T01:24:25.932Z,8.27
2018-11-06T01:26:58.408Z,8.29
2018-11-06T01:29:29.891Z,8.31
2018-11-06T01:32:01.370Z,8.32
2018-11-06T01:34:32.714Z,8.31
2018-11-06T01:37:03.934Z,8.36
2018-11-06T01:39:35.873Z,8.37
2018-11-06T01:42:07.472Z,8.44
2018-11-06T01:44:38.579Z,8.44
2018-11-06T01:47:10.131Z,8.46
2018-11-06T01:49:42.324Z,8.40
2018-11-06T01:52:13.767Z,8.42
2018-11-06T01:54:45.490Z,8.41
2018-11-06T01:57:16.506Z,8.41
2018-11-06T01:59:49.218Z,8.39
2018-11-06T02:02:20.221Z,8.38
2018-11-06T02:04:52.595Z,8.40
2018-11-06T02:07:25.364Z,8.38
2018-11-06T02:09:57.437Z,8.41
2018-11-06T02:12:33.261Z,8.40
2018-11-06T02:15:01.877Z,8.41
2018-11-06T02:17:33.320Z,8.42
2018-11-06T02:20:05.743Z,8.44
2018-11-06T02:22:38.377Z,8.54
2018-11-06T02:25:10.841Z,8.47
2018-11-06T02:27:41.822Z,8.47
2018-11-06T02:30:15.949Z,8.42
2018-11-06T02:32:47.826Z,8.43
2018-11-06T02:35:18.907Z,8.42
2018-11-06T02:37:49.928Z,8.41
2018-11-06T02:40:21.374Z,8.39
2018-11-06T02:42:53.284Z,8.39
2018-11-06T02:45:24.346Z,8.46
2018-11-06T02:47:55.462Z,8.38
2018-11-06T02:50:26.861Z,8.31
2018-11-06T02:53:00.128Z,8.22
2018-11-06T02:55:31.137Z,8.20
2018-11-06T02:58:03.205Z,8.10
2018-11-06T03:00:34.545Z,8.08
2018-11-06T03:03:05.628Z,7.99
2018-11-06T03:05:38.810Z,8.02
2018-11-06T03:08:09.829Z,8.00
2018-11-06T03:10:41.921Z,8.00
2018-11-06T03:13:15.325Z,8.03
2018-11-06T03:15:46.448Z,8.05
2018-11-06T03:18:17.899Z,8.02
2018-11-06T03:20:48.963Z,8.04
2018-11-06T03:23:21.419Z,8.03
2018-11-06T03:25:53.798Z,8.03
2018-11-06T03:28:24.808Z,8.07
2018-11-06T03:30:55.971Z,8.09
2018-11-06T03:33:27.347Z,8.08
2018-11-06T03:35:59.269Z,8.10
2018-11-06T03:38:31.081Z,8.06
2018-11-06T03:41:02.565Z,8.16
2018-11-06T03:43:34.555Z,8.15
2018-11-06T03:46:06.573Z,8.19
2018-11-06T03:48:39.842Z,8.18
2018-11-06T03:51:11.766Z,8.17
2018-11-06T03:53:42.805Z,8.17
2018-11-06T03:56:13.818Z,8.15
2018-11-06T03:58:46.026Z,8.10
2018-11-06T04:01:21.825Z,8.12
2018-11-06T04:03:54.253Z,8.13
2018-11-06T04:06:25.247Z,8.09
2018-11-06T04:08:56.375Z,8.02
2018-11-06T04:11:27.416Z,8.00
2018-11-06T04:13:58.924Z,7.95
2018-11-06T04:16:31.951Z,7.93
2018-11-06T04:19:03.145Z,7.94
2018-11-06T04:21:36.343Z,7.87
2018-11-06T04:24:10.127Z,7.85
2018-11-06T04:26:41.918Z,7.81
2018-11-06T04:29:13.873Z,7.81
2018-11-06T04:31:45.775Z,7.85
2018-11-06T04:34:18.409Z,7.84
2018-11-06T04:36:50.037Z,7.76
2018-11-06T04:39:21.205Z,7.70
2018-11-06T04:41:53.265Z,7.72
2018-11-06T04:44:25.178Z,7.69
2018-11-06T04:46:57.530Z,7.72
2018-11-06T04:49:29.571Z,7.72
2018-11-06T04:52:00.649Z,7.74
2018-11-06T04:54:32.895Z,7.69
2018-11-06T04:57:03.937Z,7.71
2018-11-06T04:59:36.495Z,7.69
2018-11-06T05:02:08.280Z,7.68
2018-11-06T05:04:39.523Z,7.80
2018-11-06T05:07:10.675Z,7.82
2018-11-06T05:09:42.022Z,7.72
2018-11-06T05:12:14.040Z,7.70
2018-11-06T05:14:45.289Z,7.69
2018-11-06T05:17:17.216Z,7.71
2018-11-06T05:19:48.728Z,7.66
2018-11-06T05:22:20.865Z,7.64
2018-11-06T05:24:52.829Z,7.67
2018-11-06T05:27:24.561Z,7.66
2018-11-06T05:29:55.601Z,7.62
2018-11-06T05:32:26.986Z,7.58
2018-11-06T05:34:58.868Z,7.56
2018-11-06T05:37:30.816Z,7.56
2018-11-06T05:40:37.732Z,7.52
2018-11-06T05:43:09.197Z,7.55
2018-11-06T05:45:41.530Z,7.53
2018-11-06T05:48:12.893Z,7.54
2018-11-06T05:50:43.950Z,7.43
2018-11-06T05:53:15.521Z,7.46
2018-11-06T05:55:46.825Z,7.47
2018-11-06T05:58:18.372Z,7.41
2018-11-06T06:00:50.514Z,7.42
2018-11-06T06:03:22.473Z,7.37
2018-11-06T06:05:54.310Z,7.37
2018-11-06T06:08:25.318Z,7.36
2018-11-06T06:10:56.456Z,7.37
2018-11-06T06:13:29.913Z,7.37
2018-11-06T06:16:01.942Z,7.33
2018-11-06T06:18:33.839Z,7.39
2018-11-06T06:21:05.189Z,7.38
2018-11-06T06:23:36.694Z,7.37
2018-11-06T06:26:08.209Z,7.34
2018-11-06T06:28:39.318Z,7.30
2018-11-06T06:31:10.413Z,7.24
2018-11-06T06:33:41.966Z,7.17
2018-11-06T06:36:13.896Z,7.17
2018-11-06T06:38:47.389Z,7.17
2018-11-06T06:41:19.025Z,7.16
2018-11-06T06:43:50.578Z,7.19
2018-11-06T06:46:21.728Z,7.16
2018-11-06T06:48:53.972Z,7.10
2018-11-06T06:51:25.445Z,7.04
2018-11-06T06:53:56.994Z,7.06
2018-11-06T06:56:29.104Z,7.08
2018-11-06T06:59:00.840Z,7.05
2018-11-06T07:01:32.359Z,7.07
2018-11-06T07:04:04.750Z,7.10
2018-11-06T07:06:36.242Z,7.07
2018-11-06T07:09:11.162Z,7.07
2018-11-06T07:11:43.142Z,7.05
2018-11-06T07:14:15.804Z,7.07
2018-11-06T07:16:46.954Z,7.07
2018-11-06T07:19:18.441Z,7.07
2018-11-06T07:21:50.815Z,7.03
2018-11-06T07:24:22.485Z,7.11
2018-11-06T07:26:53.521Z,7.16
2018-11-06T07:29:25.644Z,7.09
2018-11-06T07:31:57.974Z,7.06
2018-11-06T07:34:29.406Z,7.15
2018-11-06T07:37:00.785Z,7.14
2018-11-06T07:39:32.746Z,7.04
2018-11-06T07:42:04.113Z,7.05
2018-11-06T07:44:36.663Z,7.08
2018-11-06T07:47:08.939Z,7.09
2018-11-06T07:49:40.134Z,7.12
2018-11-06T07:52:11.643Z,7.14
2018-11-06T07:54:44.412Z,7.19
2018-11-06T07:57:15.443Z,7.18
2018-11-06T07:59:46.677Z,7.17
2018-11-06T08:02:18.434Z,7.22
2018-11-06T08:04:49.976Z,7.25
2018-11-06T08:07:22.283Z,7.27
2018-11-06T08:09:54.546Z,7.31
2018-11-06T08:12:29.614Z,7.31
2018-11-06T08:15:01.294Z,7.43
2018-11-06T08:17:32.677Z,7.37
2018-11-06T08:20:04.767Z,7.37
2018-11-06T08:22:35.838Z,7.52
2018-11-06T08:25:09.190Z,7.63
2018-11-06T08:27:41.232Z,7.60
2018-11-06T08:30:12.868Z,7.56
2018-11-06T08:32:45.372Z,7.57
2018-11-06T08:35:17.154Z,7.65
2018-11-06T08:37:48.200Z,7.71
2018-11-06T08:40:21.530Z,7.74
2018-11-06T08:42:53.404Z,7.73
2018-11-06T08:45:24.465Z,7.64
2018-11-06T08:47:56.268Z,7.61
2018-11-06T08:50:29.482Z,7.62
2018-11-06T08:53:01.506Z,7.75
2018-11-06T08:55:32.662Z,7.83
2018-11-06T08:58:04.003Z,7.86
2018-11-06T09:00:36.412Z,7.92
2018-11-06T09:03:07.465Z,7.95
2018-11-06T09:05:38.527Z,8.07
2018-11-06T09:08:09.534Z,8.20
2018-11-06T09:10:41.885Z,8.17
2018-11-06T09:13:14.193Z,8.23
2018-11-06T09:15:46.599Z,8.32
2018-11-06T09:18:18.118Z,8.46
2018-11-06T09:20:50.135Z,8.49
2018-11-06T09:23:22.529Z,8.51
2018-11-06T09:25:55.750Z,8.59
2018-11-06T09:28:26.803Z,8.66
2018-11-06T09:30:58.298Z,8.73
2018-11-06T09:33:30.982Z,8.91
2018-11-06T09:36:02.384Z,9.07
2018-11-06T09:38:33.442Z,9.15
2018-11-06T09:41:04.477Z,9.28
2018-11-06T09:43:36.314Z,9.40
2018-11-06T09:46:08.326Z,9.48
2018-11-06T09:48:39.465Z,9.57
2018-11-06T09:51:10.487Z,9.72
2018-11-06T09:53:41.984Z,9.81
2018-11-06T09:56:13.389Z,9.93
2018-11-06T09:58:45.738Z,10.12
2018-11-06T10:01:17.204Z,10.26
2018-11-06T10:03:50.838Z,10.41
2018-11-06T10:06:22.359Z,10.55
2018-11-06T10:08:53.881Z,10.65
2018-11-06T10:11:25.390Z,10.77
2018-11-06T10:13:57.220Z,10.85
2018-11-06T10:16:28.633Z,10.86
2018-11-06T10:19:00.835Z,11.01
2018-11-06T10:21:31.886Z,11.08
2018-11-06T10:24:03.289Z,11.18
2018-11-06T10:26:34.285Z,11.22
2018-11-06T10:29:05.307Z,11.31
2018-11-06T10:31:37.366Z,11.48
2018-11-06T10:34:10.182Z,11.54
2018-11-06T10:36:41.611Z,11.62
2018-11-06T10:39:14.504Z,11.69
2018-11-06T10:41:46.452Z,11.85
2018-11-06T10:44:19.152Z,11.98
2018-11-06T10:46:50.534Z,12.13
2018-11-06T10:49:22.544Z,12.34
2018-11-06T10:51:54.085Z,12.54
2018-11-06T10:54:25.467Z,12.67
2018-11-06T10:56:56.560Z,12.74
2018-11-06T10:59:29.366Z,12.80
2018-11-06T11:02:17.983Z,12.93
2018-11-06T11:04:49.920Z,12.87
2018-11-06T11:07:21.035Z,12.78
2018-11-06T11:09:53.068Z,12.75
2018-11-06T11:12:24.097Z,12.76
2018-11-06T11:14:56.138Z,12.75
2018-11-06T11:17:28.904Z,12.83
2018-11-06T11:20:00.304Z,12.83
2018-11-06T11:22:31.370Z,12.88
2018-11-06T11:25:02.735Z,13.08
2018-11-06T11:27:35.266Z,13.18
2018-11-06T11:30:08.849Z,13.27
2018-11-06T11:32:41.210Z,13.26
2018-11-06T11:35:13.858Z,13.33
2018-11-06T11:37:45.965Z,13.36
2018-11-06T11:40:19.279Z,13.50
2018-11-06T11:42:50.753Z,13.44
2018-11-06T11:45:23.614Z,13.45
2018-11-06T11:47:55.600Z,13.55
2018-11-06T11:50:27.005Z,13.67
2018-11-06T11:52:58.387Z,13.62
2018-11-06T11:55:31.131Z,13.65
2018-11-06T11:58:03.985Z,13.72
2018-11-06T12:00:39.324Z,13.77
2018-11-06T12:03:11.047Z,13.65
2018-11-06T12:05:43.440Z,13.58
2018-11-06T12:08:14.827Z,13.64
2018-11-06T12:10:46.693Z,13.68
2018-11-06T12:13:19.856Z,13.82
2018-11-06T12:15:52.171Z,13.97
2018-11-06T12:18:24.343Z,14.13
2018-11-06T12:20:57.265Z,14.32
2018-11-06T12:23:28.775Z,14.42
2018-11-06T12:26:01.079Z,14.62
2018-11-06T12:28:32.129Z,14.72
2018-11-06T12:31:03.276Z,14.89
2018-11-06T12:33:35.740Z,15.02
2018-11-06T12:36:09.218Z,15.10
2018-11-06T12:38:41.346Z,15.03
2018-11-06T12:41:13.799Z,15.19
2018-11-06T12:43:44.804Z,15.31
2018-11-06T12:46:16.840Z,15.29
2018-11-06T12:48:48.844Z,15.43
2018-11-06T12:51:20.992Z,15.60
2018-11-06T12:53:52.841Z,15.46
2018-11-06T12:56:24.243Z,15.39
2018-11-06T12:58:56.489Z,15.26
2018-11-06T13:02:15.910Z,15.09
2018-11-06T13:04:47.969Z,14.87
2018-11-06T13:07:19.743Z,14.74
2018-11-06T13:09:51.205Z,14.59
2018-11-06T13:12:23.948Z,14.45
2018-11-06T13:14:55.308Z,14.33
2018-11-06T13:17:26.088Z,14.21
2018-11-06T13:19:58.239Z,14.13
2018-11-06T13:22:30.246Z,14.06
2018-11-06T13:25:03.442Z,14.09
2018-11-06T13:27:34.843Z,14.15
2018-11-06T13:30:06.777Z,14.19
2018-11-06T13:32:38.692Z,14.25
2018-11-06T13:35:11.167Z,14.24
2018-11-06T13:37:42.986Z,14.23
2018-11-06T13:40:15.363Z,14.18
2018-11-06T13:42:47.658Z,14.16
2018-11-06T13:45:23.895Z,14.16
2018-11-06T13:47:55.636Z,14.10
2018-11-06T13:50:27.673Z,14.06
2018-11-06T13:52:59.943Z,13.97
2018-11-06T13:55:31.386Z,13.94
2018-11-06T13:58:02.502Z,13.85
2018-11-06T14:00:33.961Z,13.76
2018-11-06T14:03:06.230Z,13.69
2018-11-06T14:05:38.060Z,13.63
2018-11-06T14:08:09.112Z,13.58
2018-11-06T14:10:42.071Z,13.54
2018-11-06T14:13:13.117Z,13.50
2018-11-06T14:15:44.149Z,13.46
2018-11-06T14:18:15.197Z,13.41
2018-11-06T14:20:46.685Z,13.39
2018-11-06T14:23:17.872Z,13.34
2018-11-06T14:25:49.913Z,13.34
2018-11-06T14:28:21.981Z,13.34
2018-11-06T14:30:52.989Z,13.35
2018-11-06T14:33:25.150Z,13.31
2018-11-06T14:35:57.091Z,13.21
2018-11-06T14:38:28.377Z,13.16
2018-11-06T14:40:59.890Z,13.12
2018-11-06T14:43:32.090Z,13.06
2018-11-06T14:46:05.009Z,13.03
2018-11-06T14:48:36.218Z,13.02
2018-11-06T14:51:07.083Z,13.02
2018-11-06T14:53:38.867Z,12.96
2018-11-06T14:56:10.110Z,12.94
2018-11-06T14:58:41.940Z,12.89
2018-11-06T15:01:12.965Z,12.83
2018-11-06T15:03:45.353Z,12.73
2018-11-06T15:06:16.591Z,12.61
2018-11-06T15:08:47.602Z,12.54
2018-11-06T15:11:18.672Z,12.48
2018-11-06T15:13:49.718Z,12.40
2018-11-06T15:16:20.736Z,12.28
2018-11-06T15:18:52.576Z,12.21
2018-11-06T15:21:24.419Z,12.21
2018-11-06T15:23:56.190Z,12.16
2018-11-06T15:26:27.307Z,12.22
2018-11-06T15:28:58.716Z,12.23
2018-11-06T15:31:30.073Z,12.16
2018-11-06T15:34:04.078Z,12.04
2018-11-06T15:36:35.851Z,11.91
2018-11-06T15:39:09.383Z,11.90
2018-11-06T15:41:41.733Z,11.90
2018-11-06T15:44:13.972Z,11.85
2018-11-06T15:46:45.512Z,11.74
2018-11-06T15:49:16.611Z,11.58
2018-11-06T15:51:49.052Z,11.52
2018-11-06T15:54:22.738Z,11.53
2018-11-06T15:56:53.821Z,11.51
2018-11-06T15:59:26.391Z,11.48
2018-11-06T16:01:57.459Z,11.48
2018-11-06T16:04:28.924Z,11.34
2018-11-06T16:06:59.997Z,11.23
2018-11-06T16:09:31.833Z,11.11
2018-11-06T16:12:03.345Z,11.03
2018-11-06T16:14:35.788Z,10.96
2018-11-06T16:17:07.101Z,10.87
2018-11-06T16:19:38.528Z,10.83
2018-11-06T16:22:10.256Z,10.76
2018-11-06T16:24:41.742Z,10.76
2018-11-06T16:27:13.745Z,10.71
2018-11-06T16:29:46.482Z,10.68
2018-11-06T16:32:17.569Z,10.62
2018-11-06T16:34:49.124Z,10.60
2018-11-06T16:37:22.067Z,10.55
2018-11-06T16:39:53.146Z,10.52
2018-11-06T16:42:24.776Z,10.58
2018-11-06T16:44:55.882Z,10.65
2018-11-06T16:47:26.904Z,10.61
2018-11-06T16:49:59.413Z,10.56
2018-11-06T16:52:31.326Z,10.54
2018-11-06T16:55:03.405Z,10.53
2018-11-06T16:57:34.845Z,10.48
2018-11-06T17:00:06.896Z,10.42
2018-11-06T17:02:38.438Z,10.36
2018-11-06T17:05:10.690Z,10.34
2018-11-06T17:07:43.552Z,10.33
2018-11-06T17:10:15.986Z,10.23
2018-11-06T17:12:47.050Z,10.15
2018-11-06T17:15:23.078Z,10.06
2018-11-06T17:17:55.093Z,10.00
2018-11-06T17:20:26.431Z,10.08
2018-11-06T17:22:58.284Z,10.05
2018-11-06T17:25:30.281Z,10.05
2018-11-06T17:28:02.054Z,10.05
2018-11-06T17:30:33.116Z,10.01
2018-11-06T17:33:04.548Z,9.96
2018-11-06T17:35:36.991Z,9.93
2018-11-06T17:38:08.017Z,9.92
2018-11-06T17:40:39.381Z,9.94
2018-11-06T17:43:10.407Z,9.92
2018-11-06T17:45:42.505Z,9.94
2018-11-06T17:48:14.764Z,9.89
2018-11-06T17:50:46.282Z,9.91
2018-11-06T17:53:17.286Z,9.94
2018-11-06T17:55:48.337Z,9.93
2018-11-06T17:58:19.796Z,9.90
2018-11-06T18:00:51.669Z,9.89
2018-11-06T20:27:30.097Z,9.03
2018-11-06T20:30:01.580Z,8.92
2018-11-06T20:32:32.927Z,8.90
2018-11-06T20:35:05.165Z,8.85
2018-11-06T20:37:36.536Z,8.83
2018-11-06T20:40:09.988Z,8.84
2018-11-06T20:42:44.314Z,8.78
2018-11-06T20:45:17.948Z,8.85
2018-11-06T20:47:49.433Z,8.89
2018-11-06T20:50:22.919Z,8.83
2018-11-06T20:52:55.445Z,8.82
2018-11-06T20:55:26.864Z,8.84
2018-11-06T20:57:57.880Z,8.81
2018-11-06T21:00:32.064Z,8.92
2018-11-06T21:03:03.819Z,8.92
2018-11-06T21:05:35.001Z,8.86
2018-11-06T21:08:06.655Z,8.85
2018-11-06T21:10:41.383Z,8.81
2018-11-06T21:13:13.983Z,8.71
2018-11-06T21:15:44.962Z,8.58
2018-11-06T21:18:18.535Z,8.60
2018-11-06T21:20:51.455Z,8.64
2018-11-06T21:23:22.592Z,8.66
2018-11-06T21:25:54.070Z,8.49
2018-11-06T21:28:25.331Z,8.42
2018-11-06T21:30:56.412Z,8.39
2018-11-06T21:33:27.428Z,8.39
2018-11-06T21:35:59.003Z,8.41
2018-11-06T21:38:31.015Z,8.42
2018-11-06T21:41:02.518Z,8.40
2018-11-06T21:43:33.679Z,8.20
2018-11-06T21:46:04.838Z,8.38
2018-11-06T21:48:37.150Z,8.41
2018-11-06T21:51:08.698Z,8.46
2018-11-06T21:53:42.188Z,8.42
2018-11-06T21:56:13.230Z,8.32
2018-11-06T21:58:44.767Z,8.25
2018-11-06T22:01:16.544Z,8.27
2018-11-06T22:03:48.869Z,8.24
2018-11-06T22:06:19.881Z,8.33
2018-11-06T22:08:51.018Z,8.32
2018-11-06T22:11:32.439Z,8.35
2018-11-06T22:14:03.901Z,8.32
2018-11-06T22:16:36.416Z,8.30
2018-11-06T22:19:08.632Z,8.31
2018-11-06T22:21:39.709Z,8.26
2018-11-06T22:24:12.061Z,8.19
2018-11-06T22:26:45.620Z,8.10
2018-11-06T22:29:18.346Z,8.12
2018-11-06T22:31:49.566Z,8.02
2018-11-06T22:34:20.872Z,7.95
2018-11-06T22:36:53.625Z,7.94
2018-11-06T22:39:25.685Z,7.91
2018-11-06T22:41:56.758Z,7.87
2018-11-06T22:44:29.869Z,7.83
2018-11-06T22:47:02.021Z,7.81
2018-11-06T22:49:33.027Z,7.85
2018-11-06T22:52:04.105Z,7.81
2018-11-06T22:54:35.709Z,7.90
2018-11-06T22:57:06.962Z,7.90
2018-11-06T22:59:38.594Z,7.81
2018-11-06T23:02:09.610Z,7.83
2018-11-06T23:04:42.877Z,7.88
2018-11-06T23:07:32.384Z,7.85
2018-11-06T23:10:04.734Z,7.90
2018-11-06T23:12:37.500Z,7.91
2018-11-06T23:15:08.644Z,7.80
2018-11-06T23:17:39.690Z,7.77
2018-11-06T23:20:11.242Z,7.88
2018-11-06T23:22:42.266Z,7.84
2018-11-06T23:25:13.303Z,7.82
2018-11-06T23:27:45.292Z,7.80
2018-11-06T23:30:17.924Z,7.81
2018-11-06T23:32:49.871Z,7.80
2018-11-06T23:35:21.550Z,7.65
2018-11-06T23:37:53.339Z,7.68
2018-11-06T23:40:24.380Z,7.68
2018-11-06T23:42:56.348Z,7.70
2018-11-06T23:45:29.266Z,7.73
2018-11-06T23:48:01.293Z,7.82
2018-11-06T23:50:32.309Z,7.80
2018-11-06T23:53:04.730Z,7.86
2018-11-06T23:55:36.178Z,7.83
2018-11-06T23:58:07.175Z,7.86
